sensor_id;sensor_type;location;lat;lon;timestamp;P1;durP1;ratioP1;P2;durP2;ratioP2
40623;SDS011;26325;48.594;11.650;2024-02-26T00:01:01;10.00;;;8.98;;
40623;SDS011;26325;48.594;11.650;2024-02-26T00:03:27;10.10;;;8.93;;
40623;SDS011;26325;48.594;11.650;2024-02-26T00:05:57;9.55;;;8.63;;
40623;SDS011;26325;48.594;11.650;2024-02-26T00:08:23;9.73;;;8.73;;
40623;SDS011;26325;48.594;11.650;2024-02-26T00:10:48;9.63;;;8.73;;
40623;SDS011;26325;48.594;11.650;2024-02-26T00:13:14;10.32;;;9.32;;
40623;SDS011;26325;48.594;11.650;2024-02-26T00:15:39;10.20;;;9.20;;
40623;SDS011;26325;48.594;11.650;2024-02-26T00:18:09;9.85;;;8.85;;
40623;SDS011;26325;48.594;11.650;2024-02-26T00:20:35;9.75;;;8.57;;
40623;SDS011;26325;48.594;11.650;2024-02-26T00:23:01;12.43;;;9.02;;
40623;SDS011;26325;48.594;11.650;2024-02-26T00:25:26;8.75;;;7.90;;
40623;SDS011;26325;48.594;11.650;2024-02-26T00:27:52;9.65;;;8.65;;
40623;SDS011;26325;48.594;11.650;2024-02-26T00:30:17;8.98;;;7.97;;
40623;SDS011;26325;48.594;11.650;2024-02-26T00:32:43;10.35;;;8.55;;
40623;SDS011;26325;48.594;11.650;2024-02-26T00:35:08;9.48;;;8.57;;
40623;SDS011;26325;48.594;11.650;2024-02-26T00:37:35;9.02;;;8.07;;
40623;SDS011;26325;48.594;11.650;2024-02-26T00:40:02;9.82;;;8.75;;
40623;SDS011;26325;48.594;11.650;2024-02-26T00:42:28;9.25;;;8.35;;
40623;SDS011;26325;48.594;11.650;2024-02-26T00:44:54;9.60;;;8.43;;
40623;SDS011;26325;48.594;11.650;2024-02-26T00:47:19;9.35;;;8.32;;
40623;SDS011;26325;48.594;11.650;2024-02-26T00:49:45;10.02;;;8.70;;
40623;SDS011;26325;48.594;11.650;2024-02-26T00:52:10;10.48;;;9.00;;
40623;SDS011;26325;48.594;11.650;2024-02-26T00:54:36;11.70;;;8.70;;
40623;SDS011;26325;48.594;11.650;2024-02-26T00:57:02;9.65;;;8.65;;
40623;SDS011;26325;48.594;11.650;2024-02-26T00:59:27;9.55;;;8.55;;
40623;SDS011;26325;48.594;11.650;2024-02-26T01:01:53;9.90;;;8.60;;
40623;SDS011;26325;48.594;11.650;2024-02-26T01:04:18;9.75;;;8.63;;
40623;SDS011;26325;48.594;11.650;2024-02-26T01:06:46;9.75;;;8.75;;
40623;SDS011;26325;48.594;11.650;2024-02-26T01:09:11;10.40;;;8.43;;
40623;SDS011;26325;48.594;11.650;2024-02-26T01:11:37;11.60;;;9.48;;
40623;SDS011;26325;48.594;11.650;2024-02-26T01:14:05;10.20;;;9.13;;
40623;SDS011;26325;48.594;11.650;2024-02-26T01:16:31;10.57;;;9.13;;
40623;SDS011;26325;48.594;11.650;2024-02-26T01:18:57;10.88;;;9.57;;
40623;SDS011;26325;48.594;11.650;2024-02-26T01:21:22;10.38;;;9.13;;
40623;SDS011;26325;48.594;11.650;2024-02-26T01:23:50;10.55;;;9.00;;
40623;SDS011;26325;48.594;11.650;2024-02-26T01:26:16;11.10;;;9.68;;
40623;SDS011;26325;48.594;11.650;2024-02-26T01:28:41;11.55;;;9.75;;
40623;SDS011;26325;48.594;11.650;2024-02-26T01:31:08;10.95;;;9.77;;
40623;SDS011;26325;48.594;11.650;2024-02-26T01:33:34;11.10;;;9.85;;
40623;SDS011;26325;48.594;11.650;2024-02-26T01:36:01;10.57;;;9.48;;
40623;SDS011;26325;48.594;11.650;2024-02-26T01:38:29;10.98;;;9.40;;
40623;SDS011;26325;48.594;11.650;2024-02-26T01:40:54;10.07;;;9.07;;
40623;SDS011;26325;48.594;11.650;2024-02-26T01:43:25;10.65;;;9.48;;
40623;SDS011;26325;48.594;11.650;2024-02-26T01:45:50;11.05;;;9.40;;
40623;SDS011;26325;48.594;11.650;2024-02-26T01:48:16;10.60;;;9.25;;
40623;SDS011;26325;48.594;11.650;2024-02-26T01:50:41;9.85;;;8.85;;
40623;SDS011;26325;48.594;11.650;2024-02-26T01:53:07;10.38;;;9.27;;
40623;SDS011;26325;48.594;11.650;2024-02-26T01:55:34;10.88;;;9.60;;
40623;SDS011;26325;48.594;11.650;2024-02-26T01:58:00;11.27;;;9.65;;
40623;SDS011;26325;48.594;11.650;2024-02-26T02:00:26;11.07;;;9.13;;
40623;SDS011;26325;48.594;11.650;2024-02-26T02:02:54;10.55;;;8.95;;
40623;SDS011;26325;48.594;11.650;2024-02-26T02:05:20;10.15;;;8.88;;
40623;SDS011;26325;48.594;11.650;2024-02-26T02:07:47;11.35;;;10.15;;
40623;SDS011;26325;48.594;11.650;2024-02-26T02:10:15;9.82;;;8.82;;
40623;SDS011;26325;48.594;11.650;2024-02-26T02:12:41;10.48;;;9.38;;
40623;SDS011;26325;48.594;11.650;2024-02-26T02:15:09;10.38;;;9.20;;
40623;SDS011;26325;48.594;11.650;2024-02-26T02:17:35;11.73;;;9.63;;
40623;SDS011;26325;48.594;11.650;2024-02-26T02:20:01;10.05;;;9.05;;
40623;SDS011;26325;48.594;11.650;2024-02-26T02:22:29;10.38;;;9.02;;
40623;SDS011;26325;48.594;11.650;2024-02-26T02:24:57;11.40;;;9.00;;
40623;SDS011;26325;48.594;11.650;2024-02-26T02:27:25;10.07;;;9.07;;
40623;SDS011;26325;48.594;11.650;2024-02-26T02:29:52;10.88;;;8.82;;
40623;SDS011;26325;48.594;11.650;2024-02-26T02:32:18;10.25;;;9.15;;
40623;SDS011;26325;48.594;11.650;2024-02-26T02:34:44;9.98;;;8.93;;
40623;SDS011;26325;48.594;11.650;2024-02-26T02:37:11;10.02;;;9.02;;
40623;SDS011;26325;48.594;11.650;2024-02-26T02:39:36;10.13;;;9.02;;
40623;SDS011;26325;48.594;11.650;2024-02-26T02:42:02;9.38;;;8.38;;
40623;SDS011;26325;48.594;11.650;2024-02-26T02:44:27;9.35;;;8.35;;
40623;SDS011;26325;48.594;11.650;2024-02-26T02:46:53;9.10;;;8.20;;
40623;SDS011;26325;48.594;11.650;2024-02-26T02:49:19;8.98;;;7.97;;
40623;SDS011;26325;48.594;11.650;2024-02-26T02:51:44;8.68;;;7.78;;
40623;SDS011;26325;48.594;11.650;2024-02-26T02:54:10;9.48;;;8.20;;
40623;SDS011;26325;48.594;11.650;2024-02-26T02:56:37;8.85;;;7.95;;
40623;SDS011;26325;48.594;11.650;2024-02-26T02:59:06;9.00;;;8.02;;
40623;SDS011;26325;48.594;11.650;2024-02-26T03:01:31;8.90;;;7.57;;
40623;SDS011;26325;48.594;11.650;2024-02-26T03:03:57;8.77;;;7.97;;
40623;SDS011;26325;48.594;11.650;2024-02-26T03:06:22;9.18;;;8.10;;
40623;SDS011;26325;48.594;11.650;2024-02-26T03:08:48;8.70;;;7.78;;
40623;SDS011;26325;48.594;11.650;2024-02-26T03:11:14;8.20;;;7.40;;
40623;SDS011;26325;48.594;11.650;2024-02-26T03:13:41;8.35;;;7.47;;
40623;SDS011;26325;48.594;11.650;2024-02-26T03:16:07;7.85;;;7.05;;
40623;SDS011;26325;48.594;11.650;2024-02-26T03:18:35;8.00;;;7.20;;
40623;SDS011;26325;48.594;11.650;2024-02-26T03:21:00;7.90;;;7.10;;
40623;SDS011;26325;48.594;11.650;2024-02-26T03:23:26;8.25;;;6.97;;
40623;SDS011;26325;48.594;11.650;2024-02-26T03:25:51;8.18;;;7.32;;
40623;SDS011;26325;48.594;11.650;2024-02-26T03:28:17;7.65;;;6.85;;
40623;SDS011;26325;48.594;11.650;2024-02-26T03:30:43;7.93;;;7.13;;
40623;SDS011;26325;48.594;11.650;2024-02-26T03:33:08;9.25;;;7.43;;
40623;SDS011;26325;48.594;11.650;2024-02-26T03:35:34;8.15;;;7.35;;
40623;SDS011;26325;48.594;11.650;2024-02-26T03:37:59;7.10;;;6.40;;
40623;SDS011;26325;48.594;11.650;2024-02-26T03:40:25;7.32;;;6.50;;
40623;SDS011;26325;48.594;11.650;2024-02-26T03:42:51;7.40;;;6.60;;
40623;SDS011;26325;48.594;11.650;2024-02-26T03:45:18;7.57;;;6.78;;
40623;SDS011;26325;48.594;11.650;2024-02-26T03:47:43;7.38;;;6.60;;
40623;SDS011;26325;48.594;11.650;2024-02-26T03:50:09;7.45;;;6.70;;
40623;SDS011;26325;48.594;11.650;2024-02-26T03:52:34;7.05;;;6.35;;
40623;SDS011;26325;48.594;11.650;2024-02-26T03:55:00;7.18;;;6.47;;
40623;SDS011;26325;48.594;11.650;2024-02-26T03:57:26;6.63;;;6.00;;
40623;SDS011;26325;48.594;11.650;2024-02-26T03:59:53;7.13;;;6.43;;
40623;SDS011;26325;48.594;11.650;2024-02-26T04:02:19;7.47;;;6.68;;
40623;SDS011;26325;48.594;11.650;2024-02-26T04:04:45;7.35;;;6.65;;
40623;SDS011;26325;48.594;11.650;2024-02-26T04:07:12;8.23;;;7.20;;
40623;SDS011;26325;48.594;11.650;2024-02-26T04:09:38;7.85;;;6.85;;
40623;SDS011;26325;48.594;11.650;2024-02-26T04:12:05;7.35;;;6.65;;
40623;SDS011;26325;48.594;11.650;2024-02-26T04:14:31;8.73;;;7.00;;
40623;SDS011;26325;48.594;11.650;2024-02-26T04:17:07;7.80;;;7.10;;
40623;SDS011;26325;48.594;11.650;2024-02-26T04:19:33;7.63;;;6.88;;
40623;SDS011;26325;48.594;11.650;2024-02-26T04:22:00;7.30;;;6.60;;
40623;SDS011;26325;48.594;11.650;2024-02-26T04:24:25;7.63;;;6.90;;
40623;SDS011;26325;48.594;11.650;2024-02-26T04:26:51;8.07;;;7.28;;
40623;SDS011;26325;48.594;11.650;2024-02-26T04:29:19;7.55;;;6.82;;
40623;SDS011;26325;48.594;11.650;2024-02-26T04:31:45;7.70;;;6.35;;
40623;SDS011;26325;48.594;11.650;2024-02-26T04:34:12;7.65;;;6.85;;
40623;SDS011;26325;48.594;11.650;2024-02-26T04:36:38;7.68;;;6.93;;
40623;SDS011;26325;48.594;11.650;2024-02-26T04:39:04;8.38;;;6.63;;
40623;SDS011;26325;48.594;11.650;2024-02-26T04:41:30;8.73;;;7.20;;
40623;SDS011;26325;48.594;11.650;2024-02-26T04:43:57;7.47;;;6.68;;
40623;SDS011;26325;48.594;11.650;2024-02-26T04:46:22;7.90;;;7.20;;
40623;SDS011;26325;48.594;11.650;2024-02-26T04:48:48;7.68;;;6.97;;
40623;SDS011;26325;48.594;11.650;2024-02-26T04:51:18;7.88;;;7.13;;
40623;SDS011;26325;48.594;11.650;2024-02-26T04:53:43;9.27;;;7.40;;
40623;SDS011;26325;48.594;11.650;2024-02-26T04:56:09;8.35;;;7.10;;
40623;SDS011;26325;48.594;11.650;2024-02-26T04:58:37;8.18;;;7.32;;
40623;SDS011;26325;48.594;11.650;2024-02-26T05:01:03;7.75;;;7.00;;
40623;SDS011;26325;48.594;11.650;2024-02-26T05:03:29;8.18;;;7.38;;
40623;SDS011;26325;48.594;11.650;2024-02-26T05:05:56;8.05;;;7.25;;
40623;SDS011;26325;48.594;11.650;2024-02-26T05:08:25;8.27;;;7.25;;
40623;SDS011;26325;48.594;11.650;2024-02-26T05:10:50;7.93;;;7.13;;
40623;SDS011;26325;48.594;11.650;2024-02-26T05:13:18;7.78;;;6.97;;
40623;SDS011;26325;48.594;11.650;2024-02-26T05:15:44;7.45;;;6.70;;
40623;SDS011;26325;48.594;11.650;2024-02-26T05:18:12;8.02;;;7.22;;
40623;SDS011;26325;48.594;11.650;2024-02-26T05:20:42;7.90;;;7.10;;
40623;SDS011;26325;48.594;11.650;2024-02-26T05:23:07;8.20;;;7.40;;
40623;SDS011;26325;48.594;11.650;2024-02-26T05:25:33;8.45;;;7.65;;
40623;SDS011;26325;48.594;11.650;2024-02-26T05:28:00;8.48;;;7.50;;
40623;SDS011;26325;48.594;11.650;2024-02-26T05:30:26;8.05;;;7.25;;
40623;SDS011;26325;48.594;11.650;2024-02-26T05:32:57;7.78;;;6.97;;
40623;SDS011;26325;48.594;11.650;2024-02-26T05:35:23;7.85;;;7.05;;
40623;SDS011;26325;48.594;11.650;2024-02-26T05:37:48;9.02;;;7.72;;
40623;SDS011;26325;48.594;11.650;2024-02-26T05:40:14;8.18;;;7.15;;
40623;SDS011;26325;48.594;11.650;2024-02-26T05:42:44;9.13;;;7.82;;
40623;SDS011;26325;48.594;11.650;2024-02-26T05:45:14;8.60;;;7.65;;
40623;SDS011;26325;48.594;11.650;2024-02-26T05:47:42;8.07;;;7.28;;
40623;SDS011;26325;48.594;11.650;2024-02-26T05:50:09;8.25;;;6.85;;
40623;SDS011;26325;48.594;11.650;2024-02-26T05:52:36;8.57;;;7.70;;
40623;SDS011;26325;48.594;11.650;2024-02-26T05:55:05;8.45;;;7.65;;
40623;SDS011;26325;48.594;11.650;2024-02-26T05:57:32;8.23;;;7.30;;
40623;SDS011;26325;48.594;11.650;2024-02-26T05:59:58;8.35;;;7.45;;
40623;SDS011;26325;48.594;11.650;2024-02-26T06:02:36;9.48;;;8.57;;
40623;SDS011;26325;48.594;11.650;2024-02-26T06:05:01;9.27;;;8.38;;
40623;SDS011;26325;48.594;11.650;2024-02-26T06:07:29;8.23;;;7.05;;
40623;SDS011;26325;48.594;11.650;2024-02-26T06:09:57;8.60;;;7.70;;
40623;SDS011;26325;48.594;11.650;2024-02-26T06:12:28;8.52;;;7.60;;
40623;SDS011;26325;48.594;11.650;2024-02-26T06:14:55;7.82;;;7.03;;
40623;SDS011;26325;48.594;11.650;2024-02-26T06:17:28;8.30;;;7.40;;
40623;SDS011;26325;48.594;11.650;2024-02-26T06:19:57;8.00;;;7.20;;
40623;SDS011;26325;48.594;11.650;2024-02-26T06:22:24;8.05;;;7.28;;
40623;SDS011;26325;48.594;11.650;2024-02-26T06:24:53;7.50;;;6.75;;
40623;SDS011;26325;48.594;11.650;2024-02-26T06:27:21;9.27;;;7.88;;
40623;SDS011;26325;48.594;11.650;2024-02-26T06:29:47;8.15;;;7.20;;
40623;SDS011;26325;48.594;11.650;2024-02-26T06:32:13;7.50;;;6.63;;
40623;SDS011;26325;48.594;11.650;2024-02-26T06:34:41;7.90;;;7.15;;
40623;SDS011;26325;48.594;11.650;2024-02-26T06:37:10;8.10;;;7.30;;
40623;SDS011;26325;48.594;11.650;2024-02-26T06:39:36;8.38;;;7.57;;
40623;SDS011;26325;48.594;11.650;2024-02-26T06:42:05;8.85;;;7.20;;
40623;SDS011;26325;48.594;11.650;2024-02-26T06:44:33;7.50;;;6.80;;
40623;SDS011;26325;48.594;11.650;2024-02-26T06:47:00;9.02;;;7.00;;
40623;SDS011;26325;48.594;11.650;2024-02-26T06:49:26;8.32;;;7.32;;
40623;SDS011;26325;48.594;11.650;2024-02-26T06:51:55;8.25;;;7.28;;
40623;SDS011;26325;48.594;11.650;2024-02-26T06:54:20;9.40;;;7.40;;
40623;SDS011;26325;48.594;11.650;2024-02-26T06:56:46;8.07;;;7.28;;
40623;SDS011;26325;48.594;11.650;2024-02-26T06:59:12;8.15;;;7.35;;
40623;SDS011;26325;48.594;11.650;2024-02-26T07:01:41;9.40;;;8.02;;
40623;SDS011;26325;48.594;11.650;2024-02-26T07:04:09;10.70;;;8.73;;
40623;SDS011;26325;48.594;11.650;2024-02-26T07:06:38;7.35;;;6.65;;
40623;SDS011;26325;48.594;11.650;2024-02-26T07:09:06;7.88;;;7.07;;
40623;SDS011;26325;48.594;11.650;2024-02-26T07:11:31;9.00;;;7.90;;
40623;SDS011;26325;48.594;11.650;2024-02-26T07:13:57;8.55;;;7.70;;
40623;SDS011;26325;48.594;11.650;2024-02-26T07:16:22;8.88;;;7.97;;
40623;SDS011;26325;48.594;11.650;2024-02-26T07:18:48;11.35;;;8.73;;
40623;SDS011;26325;48.594;11.650;2024-02-26T07:21:14;10.73;;;8.50;;
40623;SDS011;26325;48.594;11.650;2024-02-26T07:23:41;11.25;;;8.75;;
40623;SDS011;26325;48.594;11.650;2024-02-26T07:26:07;10.73;;;9.55;;
40623;SDS011;26325;48.594;11.650;2024-02-26T07:28:33;9.77;;;8.77;;
40623;SDS011;26325;48.594;11.650;2024-02-26T07:31:01;9.88;;;8.93;;
40623;SDS011;26325;48.594;11.650;2024-02-26T07:33:35;8.63;;;7.72;;
40623;SDS011;26325;48.594;11.650;2024-02-26T07:36:01;9.43;;;8.50;;
40623;SDS011;26325;48.594;11.650;2024-02-26T07:38:27;9.35;;;8.30;;
40623;SDS011;26325;48.594;11.650;2024-02-26T07:40:55;9.25;;;8.30;;
40623;SDS011;26325;48.594;11.650;2024-02-26T07:43:22;9.07;;;8.13;;
40623;SDS011;26325;48.594;11.650;2024-02-26T07:45:48;8.35;;;7.55;;
40623;SDS011;26325;48.594;11.650;2024-02-26T07:48:13;8.32;;;7.53;;
40623;SDS011;26325;48.594;11.650;2024-02-26T07:50:39;8.88;;;7.93;;
40623;SDS011;26325;48.594;11.650;2024-02-26T07:53:07;9.02;;;8.13;;
40623;SDS011;26325;48.594;11.650;2024-02-26T07:55:35;9.80;;;8.63;;
40623;SDS011;26325;48.594;11.650;2024-02-26T07:58:01;10.35;;;8.82;;
40623;SDS011;26325;48.594;11.650;2024-02-26T08:00:26;9.48;;;8.15;;
40623;SDS011;26325;48.594;11.650;2024-02-26T08:02:52;8.80;;;7.90;;
40623;SDS011;26325;48.594;11.650;2024-02-26T08:05:18;8.30;;;7.55;;
40623;SDS011;26325;48.594;11.650;2024-02-26T08:07:46;9.13;;;8.23;;
40623;SDS011;26325;48.594;11.650;2024-02-26T08:10:11;10.77;;;7.68;;
40623;SDS011;26325;48.594;11.650;2024-02-26T08:12:39;7.88;;;7.18;;
40623;SDS011;26325;48.594;11.650;2024-02-26T08:15:07;8.23;;;7.43;;
40623;SDS011;26325;48.594;11.650;2024-02-26T08:17:37;8.65;;;7.90;;
40623;SDS011;26325;48.594;11.650;2024-02-26T08:20:04;8.18;;;7.38;;
40623;SDS011;26325;48.594;11.650;2024-02-26T08:22:30;9.30;;;7.80;;
40623;SDS011;26325;48.594;11.650;2024-02-26T08:24:58;8.50;;;7.70;;
40623;SDS011;26325;48.594;11.650;2024-02-26T08:27:30;8.52;;;7.72;;
40623;SDS011;26325;48.594;11.650;2024-02-26T08:29:57;7.85;;;7.15;;
40623;SDS011;26325;48.594;11.650;2024-02-26T08:32:22;8.30;;;7.50;;
40623;SDS011;26325;48.594;11.650;2024-02-26T08:34:48;8.73;;;7.93;;
40623;SDS011;26325;48.594;11.650;2024-02-26T08:37:13;8.40;;;7.68;;
40623;SDS011;26325;48.594;11.650;2024-02-26T08:42:11;8.25;;;7.53;;
40623;SDS011;26325;48.594;11.650;2024-02-26T08:44:37;8.25;;;7.45;;
40623;SDS011;26325;48.594;11.650;2024-02-26T08:47:03;9.80;;;7.53;;
40623;SDS011;26325;48.594;11.650;2024-02-26T08:49:28;8.23;;;7.43;;
40623;SDS011;26325;48.594;11.650;2024-02-26T08:51:55;7.90;;;7.20;;
40623;SDS011;26325;48.594;11.650;2024-02-26T08:54:21;7.82;;;7.03;;
40623;SDS011;26325;48.594;11.650;2024-02-26T08:56:46;7.43;;;6.70;;
40623;SDS011;26325;48.594;11.650;2024-02-26T08:59:12;7.40;;;6.70;;
40623;SDS011;26325;48.594;11.650;2024-02-26T09:01:41;7.25;;;6.60;;
40623;SDS011;26325;48.594;11.650;2024-02-26T09:04:07;6.88;;;6.28;;
40623;SDS011;26325;48.594;11.650;2024-02-26T09:06:38;6.70;;;6.10;;
40623;SDS011;26325;48.594;11.650;2024-02-26T09:09:03;7.07;;;6.40;;
40623;SDS011;26325;48.594;11.650;2024-02-26T09:11:30;6.75;;;6.05;;
40623;SDS011;26325;48.594;11.650;2024-02-26T09:13:56;7.13;;;6.53;;
40623;SDS011;26325;48.594;11.650;2024-02-26T09:16:25;6.80;;;6.22;;
40623;SDS011;26325;48.594;11.650;2024-02-26T09:18:50;7.35;;;6.65;;
40623;SDS011;26325;48.594;11.650;2024-02-26T09:21:19;6.95;;;6.18;;
40623;SDS011;26325;48.594;11.650;2024-02-26T09:23:52;7.20;;;6.60;;
40623;SDS011;26325;48.594;11.650;2024-02-26T09:26:18;7.65;;;6.80;;
40623;SDS011;26325;48.594;11.650;2024-02-26T09:28:44;7.13;;;6.53;;
40623;SDS011;26325;48.594;11.650;2024-02-26T09:31:11;8.70;;;7.18;;
40623;SDS011;26325;48.594;11.650;2024-02-26T09:33:41;6.85;;;6.28;;
40623;SDS011;26325;48.594;11.650;2024-02-26T09:36:08;6.72;;;5.97;;
40623;SDS011;26325;48.594;11.650;2024-02-26T09:38:36;6.75;;;6.07;;
40623;SDS011;26325;48.594;11.650;2024-02-26T09:41:07;6.40;;;5.80;;
40623;SDS011;26325;48.594;11.650;2024-02-26T09:43:39;7.40;;;6.70;;
40623;SDS011;26325;48.594;11.650;2024-02-26T09:46:10;6.28;;;5.68;;
40623;SDS011;26325;48.594;11.650;2024-02-26T09:48:35;6.28;;;5.68;;
40623;SDS011;26325;48.594;11.650;2024-02-26T09:51:03;6.30;;;5.70;;
40623;SDS011;26325;48.594;11.650;2024-02-26T09:53:32;6.32;;;5.50;;
40623;SDS011;26325;48.594;11.650;2024-02-26T09:55:58;6.20;;;5.47;;
40623;SDS011;26325;48.594;11.650;2024-02-26T09:58:27;9.27;;;5.32;;
40623;SDS011;26325;48.594;11.650;2024-02-26T10:00:56;6.40;;;5.80;;
40623;SDS011;26325;48.594;11.650;2024-02-26T10:03:26;6.50;;;5.90;;
40623;SDS011;26325;48.594;11.650;2024-02-26T10:05:56;6.22;;;5.63;;
40623;SDS011;26325;48.594;11.650;2024-02-26T10:08:22;5.93;;;5.32;;
40623;SDS011;26325;48.594;11.650;2024-02-26T10:10:51;5.80;;;5.30;;
40623;SDS011;26325;48.594;11.650;2024-02-26T10:13:17;5.55;;;5.05;;
40623;SDS011;26325;48.594;11.650;2024-02-26T10:15:44;6.13;;;5.63;;
40623;SDS011;26325;48.594;11.650;2024-02-26T10:18:17;6.13;;;5.55;;
40623;SDS011;26325;48.594;11.650;2024-02-26T10:20:43;5.63;;;5.13;;
40623;SDS011;26325;48.594;11.650;2024-02-26T10:23:25;5.70;;;5.10;;
40623;SDS011;26325;48.594;11.650;2024-02-26T10:25:55;4.95;;;4.45;;
40623;SDS011;26325;48.594;11.650;2024-02-26T10:28:21;4.93;;;4.53;;
40623;SDS011;26325;48.594;11.650;2024-02-26T10:30:50;4.80;;;4.40;;
40623;SDS011;26325;48.594;11.650;2024-02-26T10:33:17;5.20;;;4.80;;
40623;SDS011;26325;48.594;11.650;2024-02-26T10:35:46;5.40;;;4.90;;
40623;SDS011;26325;48.594;11.650;2024-02-26T10:38:14;5.15;;;4.63;;
40623;SDS011;26325;48.594;11.650;2024-02-26T10:40:45;4.78;;;4.38;;
40623;SDS011;26325;48.594;11.650;2024-02-26T10:43:11;4.28;;;3.97;;
40623;SDS011;26325;48.594;11.650;2024-02-26T10:45:39;4.68;;;4.28;;
40623;SDS011;26325;48.594;11.650;2024-02-26T10:48:09;4.28;;;3.97;;
40623;SDS011;26325;48.594;11.650;2024-02-26T10:50:39;4.38;;;3.97;;
40623;SDS011;26325;48.594;11.650;2024-02-26T10:53:20;4.13;;;3.83;;
40623;SDS011;26325;48.594;11.650;2024-02-26T10:56:01;3.42;;;3.13;;
40623;SDS011;26325;48.594;11.650;2024-02-26T10:58:29;3.80;;;3.50;;
40623;SDS011;26325;48.594;11.650;2024-02-26T11:00:56;3.95;;;3.65;;
40623;SDS011;26325;48.594;11.650;2024-02-26T11:03:23;4.80;;;3.95;;
40623;SDS011;26325;48.594;11.650;2024-02-26T11:05:50;3.28;;;2.97;;
40623;SDS011;26325;48.594;11.650;2024-02-26T11:08:18;3.28;;;3.00;;
40623;SDS011;26325;48.594;11.650;2024-02-26T11:10:47;3.25;;;2.88;;
40623;SDS011;26325;48.594;11.650;2024-02-26T11:13:14;3.28;;;2.97;;
40623;SDS011;26325;48.594;11.650;2024-02-26T11:15:45;2.90;;;2.70;;
40623;SDS011;26325;48.594;11.650;2024-02-26T11:18:14;2.88;;;2.67;;
40623;SDS011;26325;48.594;11.650;2024-02-26T11:20:40;2.92;;;2.67;;
40623;SDS011;26325;48.594;11.650;2024-02-26T11:23:07;3.05;;;2.75;;
40623;SDS011;26325;48.594;11.650;2024-02-26T11:25:35;3.45;;;2.90;;
40623;SDS011;26325;48.594;11.650;2024-02-26T11:28:04;2.60;;;2.40;;
40623;SDS011;26325;48.594;11.650;2024-02-26T11:30:35;3.17;;;2.60;;
40623;SDS011;26325;48.594;11.650;2024-02-26T11:33:09;2.95;;;2.75;;
40623;SDS011;26325;48.594;11.650;2024-02-26T11:35:37;3.20;;;2.90;;
40623;SDS011;26325;48.594;11.650;2024-02-26T11:38:06;3.08;;;2.80;;
40623;SDS011;26325;48.594;11.650;2024-02-26T11:40:44;2.65;;;2.45;;
40623;SDS011;26325;48.594;11.650;2024-02-26T11:43:11;3.20;;;2.90;;
40623;SDS011;26325;48.594;11.650;2024-02-26T11:48:04;2.97;;;2.78;;
40623;SDS011;26325;48.594;11.650;2024-02-26T11:50:51;2.80;;;2.60;;
40623;SDS011;26325;48.594;11.650;2024-02-26T11:58:45;3.80;;;3.50;;
40623;SDS011;26325;48.594;11.650;2024-02-26T12:01:43;3.60;;;3.30;;
40623;SDS011;26325;48.594;11.650;2024-02-26T12:04:15;3.60;;;3.40;;
40623;SDS011;26325;48.594;11.650;2024-02-26T12:06:55;3.17;;;2.95;;
40623;SDS011;26325;48.594;11.650;2024-02-26T12:14:39;3.00;;;2.50;;
40623;SDS011;26325;48.594;11.650;2024-02-26T12:17:23;2.92;;;2.72;;
40623;SDS011;26325;48.594;11.650;2024-02-26T12:19:50;2.75;;;2.55;;
40623;SDS011;26325;48.594;11.650;2024-02-26T12:22:36;3.17;;;2.60;;
40623;SDS011;26325;48.594;11.650;2024-02-26T12:25:05;2.67;;;2.47;;
40623;SDS011;26325;48.594;11.650;2024-02-26T12:27:33;2.28;;;2.15;;
40623;SDS011;26325;48.594;11.650;2024-02-26T12:29:58;2.70;;;2.55;;
40623;SDS011;26325;48.594;11.650;2024-02-26T12:32:24;1.70;;;1.60;;
40623;SDS011;26325;48.594;11.650;2024-02-26T12:34:50;2.97;;;2.88;;
40623;SDS011;26325;48.594;11.650;2024-02-26T12:37:16;2.20;;;2.10;;
40623;SDS011;26325;48.594;11.650;2024-02-26T12:39:42;2.80;;;2.60;;
40623;SDS011;26325;48.594;11.650;2024-02-26T12:42:08;2.40;;;2.30;;
40623;SDS011;26325;48.594;11.650;2024-02-26T12:44:34;2.40;;;2.30;;
40623;SDS011;26325;48.594;11.650;2024-02-26T12:47:04;2.50;;;2.30;;
40623;SDS011;26325;48.594;11.650;2024-02-26T12:49:31;2.20;;;2.10;;
40623;SDS011;26325;48.594;11.650;2024-02-26T12:51:57;2.17;;;2.08;;
40623;SDS011;26325;48.594;11.650;2024-02-26T12:54:33;2.40;;;2.30;;
40623;SDS011;26325;48.594;11.650;2024-02-26T12:57:00;2.20;;;2.10;;
40623;SDS011;26325;48.594;11.650;2024-02-26T12:59:31;2.15;;;2.05;;
40623;SDS011;26325;48.594;11.650;2024-02-26T13:01:58;2.70;;;2.05;;
40623;SDS011;26325;48.594;11.650;2024-02-26T13:04:29;2.28;;;2.08;;
40623;SDS011;26325;48.594;11.650;2024-02-26T13:06:55;2.33;;;2.22;;
40623;SDS011;26325;48.594;11.650;2024-02-26T13:09:26;3.90;;;2.20;;
40623;SDS011;26325;48.594;11.650;2024-02-26T13:11:55;2.85;;;2.75;;
40623;SDS011;26325;48.594;11.650;2024-02-26T13:14:24;3.10;;;2.90;;
40623;SDS011;26325;48.594;11.650;2024-02-26T13:16:58;2.78;;;2.67;;
40623;SDS011;26325;48.594;11.650;2024-02-26T13:19:24;2.40;;;2.20;;
40623;SDS011;26325;48.594;11.650;2024-02-26T13:21:50;1.83;;;1.73;;
40623;SDS011;26325;48.594;11.650;2024-02-26T13:24:16;2.17;;;1.98;;
40623;SDS011;26325;48.594;11.650;2024-02-26T13:26:43;2.22;;;2.13;;
40623;SDS011;26325;48.594;11.650;2024-02-26T13:29:08;2.58;;;2.38;;
40623;SDS011;26325;48.594;11.650;2024-02-26T13:31:42;3.10;;;1.90;;
40623;SDS011;26325;48.594;11.650;2024-02-26T13:34:08;2.00;;;1.90;;
40623;SDS011;26325;48.594;11.650;2024-02-26T13:36:36;2.70;;;2.25;;
40623;SDS011;26325;48.594;11.650;2024-02-26T13:39:01;2.50;;;2.40;;
40623;SDS011;26325;48.594;11.650;2024-02-26T13:41:30;2.70;;;2.30;;
40623;SDS011;26325;48.594;11.650;2024-02-26T13:43:55;2.72;;;2.53;;
40623;SDS011;26325;48.594;11.650;2024-02-26T13:46:23;2.47;;;2.28;;
40623;SDS011;26325;48.594;11.650;2024-02-26T13:48:49;2.53;;;2.33;;
40623;SDS011;26325;48.594;11.650;2024-02-26T13:51:14;2.55;;;2.35;;
40623;SDS011;26325;48.594;11.650;2024-02-26T13:53:40;2.70;;;2.50;;
40623;SDS011;26325;48.594;11.650;2024-02-26T13:56:05;2.65;;;2.45;;
40623;SDS011;26325;48.594;11.650;2024-02-26T13:58:32;2.35;;;2.22;;
40623;SDS011;26325;48.594;11.650;2024-02-26T14:01:00;2.83;;;2.63;;
40623;SDS011;26325;48.594;11.650;2024-02-26T14:03:29;2.50;;;2.30;;
40623;SDS011;26325;48.594;11.650;2024-02-26T14:05:54;2.50;;;2.30;;
40623;SDS011;26325;48.594;11.650;2024-02-26T14:08:22;2.13;;;2.03;;
40623;SDS011;26325;48.594;11.650;2024-02-26T14:10:50;2.00;;;1.90;;
40623;SDS011;26325;48.594;11.650;2024-02-26T14:13:16;2.03;;;1.92;;
40623;SDS011;26325;48.594;11.650;2024-02-26T14:15:41;2.13;;;2.03;;
40623;SDS011;26325;48.594;11.650;2024-02-26T14:18:07;2.10;;;2.00;;
40623;SDS011;26325;48.594;11.650;2024-02-26T14:20:35;3.55;;;2.00;;
40623;SDS011;26325;48.594;11.650;2024-02-26T14:23:06;3.15;;;2.95;;
40623;SDS011;26325;48.594;11.650;2024-02-26T14:25:32;3.45;;;3.22;;
40623;SDS011;26325;48.594;11.650;2024-02-26T14:27:57;2.75;;;2.55;;
40623;SDS011;26325;48.594;11.650;2024-02-26T14:30:25;2.58;;;2.38;;
40623;SDS011;26325;48.594;11.650;2024-02-26T14:32:54;2.13;;;2.00;;
40623;SDS011;26325;48.594;11.650;2024-02-26T14:35:20;2.40;;;2.20;;
40623;SDS011;26325;48.594;11.650;2024-02-26T14:37:48;2.10;;;2.00;;
40623;SDS011;26325;48.594;11.650;2024-02-26T14:40:15;2.42;;;2.22;;
40623;SDS011;26325;48.594;11.650;2024-02-26T14:42:41;2.33;;;2.10;;
40623;SDS011;26325;48.594;11.650;2024-02-26T14:45:07;1.98;;;1.88;;
40623;SDS011;26325;48.594;11.650;2024-02-26T14:47:37;2.28;;;2.08;;
40623;SDS011;26325;48.594;11.650;2024-02-26T14:50:04;2.15;;;1.95;;